createdAt,value
2023-03-12T00:01:33.393Z,3.96
2023-03-12T00:04:02.877Z,3.91
2023-03-12T00:06:30.693Z,3.87
2023-03-12T00:08:58.916Z,3.88
2023-03-12T00:11:26.598Z,3.89
2023-03-12T00:13:57.619Z,3.92
2023-03-12T00:16:26.231Z,3.91
2023-03-12T00:18:57.092Z,3.96
2023-03-12T00:21:25.638Z,3.97
2023-03-12T00:23:54.105Z,4.03
2023-03-12T00:26:23.032Z,4.04
2023-03-12T00:28:51.571Z,4.04
2023-03-12T00:31:23.137Z,4.05
2023-03-12T00:33:51.151Z,4.06
2023-03-12T00:36:19.757Z,4.06
2023-03-12T00:38:47.615Z,4.06
2023-03-12T00:41:15.286Z,4.05
2023-03-12T00:43:43.036Z,4.06
2023-03-12T00:46:10.834Z,4.08
2023-03-12T00:48:39.952Z,4.14
2023-03-12T00:51:07.947Z,4.15
2023-03-12T00:53:35.922Z,4.15
2023-03-12T00:56:04.260Z,4.15
2023-03-12T00:58:32.620Z,4.14
2023-03-12T01:01:00.687Z,4.10
2023-03-12T01:03:28.854Z,4.12
2023-03-12T01:05:57.887Z,4.12
2023-03-12T01:08:25.586Z,4.10
2023-03-12T01:10:53.547Z,4.07
2023-03-12T01:13:21.551Z,4.07
2023-03-12T01:15:49.397Z,4.10
2023-03-12T01:18:17.082Z,4.10
2023-03-12T01:20:45.034Z,4.09
2023-03-12T01:23:14.288Z,4.12
2023-03-12T01:25:47.407Z,4.17
2023-03-12T01:28:15.164Z,4.23
2023-03-12T01:30:42.832Z,4.25
2023-03-12T01:33:10.719Z,4.28
2023-03-12T01:35:39.533Z,4.29
2023-03-12T01:38:07.497Z,4.30
2023-03-12T01:40:38.009Z,4.31
2023-03-12T01:43:24.924Z,4.29
2023-03-12T01:46:29.953Z,4.28
2023-03-12T01:49:02.809Z,4.29
2023-03-12T01:51:34.776Z,4.32
2023-03-12T01:54:06.903Z,4.33
2023-03-12T01:56:37.674Z,4.33
2023-03-12T01:59:11.862Z,4.34
2023-03-12T02:01:41.599Z,4.33
2023-03-12T02:04:09.319Z,4.36
2023-03-12T02:06:43.780Z,4.34
2023-03-12T02:09:12.599Z,4.34
2023-03-12T02:11:41.747Z,4.33
2023-03-12T02:14:10.138Z,4.35
2023-03-12T02:16:38.002Z,4.36
2023-03-12T02:19:14.231Z,4.34
2023-03-12T02:21:42.194Z,4.37
2023-03-12T02:24:19.413Z,4.36
2023-03-12T02:26:49.739Z,4.37
2023-03-12T02:29:18.273Z,4.38
2023-03-12T02:31:51.352Z,4.40
2023-03-12T02:34:19.151Z,4.39
2023-03-12T02:36:46.872Z,4.40
2023-03-12T02:39:14.626Z,4.40
2023-03-12T02:41:45.721Z,4.41
2023-03-12T02:44:19.207Z,4.41
2023-03-12T02:46:50.082Z,4.41
2023-03-12T02:49:19.474Z,4.40
2023-03-12T02:51:48.476Z,4.39
2023-03-12T02:54:18.614Z,4.32
2023-03-12T02:56:46.720Z,4.26
2023-03-12T02:59:17.881Z,4.22
2023-03-12T03:01:45.730Z,4.18
2023-03-12T03:04:13.912Z,4.15
2023-03-12T03:06:44.956Z,4.15
2023-03-12T03:09:12.739Z,4.13
2023-03-12T03:11:40.948Z,4.13
2023-03-12T03:14:08.699Z,4.15
2023-03-12T03:16:38.203Z,4.15
2023-03-12T03:19:06.767Z,4.18
2023-03-12T03:21:34.980Z,4.19
2023-03-12T03:24:02.733Z,4.22
2023-03-12T03:26:30.841Z,4.22
2023-03-12T03:28:58.494Z,4.23
2023-03-12T03:31:26.209Z,4.20
2023-03-12T03:33:55.385Z,4.21
2023-03-12T03:36:23.267Z,4.21
2023-03-12T03:38:51.126Z,4.22
2023-03-12T03:41:19.716Z,4.25
2023-03-12T03:43:48.188Z,4.28
2023-03-12T03:46:16.939Z,4.28
2023-03-12T03:48:44.733Z,4.30
2023-03-12T03:51:13.792Z,4.33
2023-03-12T03:53:41.495Z,4.35
2023-03-12T03:56:10.625Z,4.35
2023-03-12T03:58:38.851Z,4.32
2023-03-12T04:01:07.116Z,4.33
2023-03-12T04:03:35.152Z,4.33
2023-03-12T04:06:06.022Z,4.35
2023-03-12T04:08:37.121Z,4.38
2023-03-12T04:11:08.850Z,4.34
2023-03-12T04:13:36.844Z,4.36
2023-03-12T04:16:05.046Z,4.37
2023-03-12T04:18:33.233Z,4.37
2023-03-12T04:21:00.926Z,4.38
2023-03-12T04:23:28.782Z,4.36
2023-03-12T04:25:57.861Z,4.36
2023-03-12T04:28:25.633Z,4.32
2023-03-12T04:30:59.410Z,4.31
2023-03-12T04:33:27.250Z,4.32
2023-03-12T04:35:55.125Z,4.37
2023-03-12T04:38:24.807Z,4.37
2023-03-12T04:41:00.778Z,4.39
2023-03-12T04:43:29.137Z,4.41
2023-03-12T04:45:57.654Z,4.42
2023-03-12T04:48:25.953Z,4.39
2023-03-12T04:50:53.782Z,4.39
2023-03-12T04:53:21.616Z,4.37
2023-03-12T04:55:49.338Z,4.38
2023-03-12T04:58:18.610Z,4.41
2023-03-12T05:00:46.853Z,4.43
2023-03-12T05:03:14.578Z,4.48
2023-03-12T05:05:42.415Z,4.49
2023-03-12T05:08:10.169Z,4.48
2023-03-12T05:10:37.990Z,4.48
2023-03-12T05:13:05.649Z,4.50
2023-03-12T05:15:38.013Z,4.54
2023-03-12T05:18:05.758Z,4.51
2023-03-12T05:20:33.447Z,4.53
2023-03-12T05:23:01.109Z,4.51
2023-03-12T05:25:28.832Z,4.50
2023-03-12T05:27:56.733Z,4.49
2023-03-12T05:30:24.659Z,4.48
2023-03-12T05:32:53.722Z,4.47
2023-03-12T05:35:21.453Z,4.48
2023-03-12T05:37:49.225Z,4.55
2023-03-12T05:40:17.086Z,4.54
2023-03-12T05:42:44.728Z,4.51
2023-03-12T05:45:12.658Z,4.54
2023-03-12T05:47:40.354Z,4.50
2023-03-12T05:50:11.390Z,4.52
2023-03-12T05:52:39.177Z,4.55
2023-03-12T05:55:08.575Z,4.49
2023-03-12T05:57:36.328Z,4.45
2023-03-12T06:00:05.125Z,4.45
2023-03-12T06:02:32.874Z,4.48
2023-03-12T06:05:00.717Z,4.47
2023-03-12T06:07:29.718Z,4.54
2023-03-12T06:09:57.455Z,4.55
2023-03-12T06:12:25.138Z,4.54
2023-03-12T06:14:52.756Z,4.50
2023-03-12T06:17:20.431Z,4.52
2023-03-12T06:19:51.810Z,4.55
2023-03-12T06:22:19.621Z,4.58
2023-03-12T06:24:48.693Z,4.61
2023-03-12T06:27:16.809Z,4.63
2023-03-12T06:29:46.373Z,4.67
2023-03-12T06:32:14.130Z,4.65
2023-03-12T06:34:42.028Z,4.66
2023-03-12T06:37:09.743Z,4.67
2023-03-12T06:39:37.788Z,4.67
2023-03-12T06:42:07.123Z,4.67
2023-03-12T06:44:34.911Z,4.65
2023-03-12T06:47:02.646Z,4.66
2023-03-12T06:49:33.206Z,4.65
2023-03-12T06:52:00.964Z,4.66
2023-03-12T06:54:28.732Z,4.73
2023-03-12T06:56:56.447Z,4.74
2023-03-12T06:59:25.660Z,4.69
2023-03-12T07:01:53.772Z,4.69
2023-03-12T07:04:21.819Z,4.67
2023-03-12T07:06:51.262Z,4.70
2023-03-12T07:09:19.390Z,4.65
2023-03-12T07:11:47.256Z,4.64
2023-03-12T07:14:15.090Z,4.64
2023-03-12T07:16:44.266Z,4.60
2023-03-12T07:19:11.988Z,4.60
2023-03-12T07:21:39.738Z,4.59
2023-03-12T07:24:08.832Z,4.62
2023-03-12T07:26:36.869Z,4.64
2023-03-12T07:29:05.249Z,4.67
2023-03-12T07:31:33.045Z,4.72
2023-03-12T07:34:03.083Z,4.71
2023-03-12T07:36:30.961Z,4.66
2023-03-12T07:38:58.867Z,4.68
2023-03-12T07:41:26.678Z,4.68
2023-03-12T07:43:54.408Z,4.70
2023-03-12T07:46:22.147Z,4.70
2023-03-12T07:48:49.988Z,4.72
2023-03-12T07:51:19.052Z,4.73
2023-03-12T07:53:46.815Z,4.76
2023-03-12T07:56:14.705Z,4.81
2023-03-12T07:58:42.618Z,4.85
2023-03-12T08:01:10.520Z,4.87
2023-03-12T08:03:39.054Z,4.91
2023-03-12T08:06:31.931Z,4.97
2023-03-12T08:08:59.720Z,5.00
2023-03-12T08:11:29.674Z,5.05
2023-03-12T08:13:57.476Z,5.07
2023-03-12T08:16:25.337Z,5.16
2023-03-12T08:18:53.115Z,5.17
2023-03-12T08:21:20.983Z,5.19
2023-03-12T08:23:50.052Z,5.28
2023-03-12T08:26:17.873Z,5.36
2023-03-12T08:28:45.904Z,5.42
2023-03-12T08:31:16.738Z,5.50
2023-03-12T08:33:44.586Z,5.49
2023-03-12T08:36:12.351Z,5.46
2023-03-12T08:38:40.129Z,5.46
2023-03-12T08:41:10.286Z,5.46
2023-03-12T08:43:37.993Z,5.49
2023-03-12T08:46:06.143Z,5.48
2023-03-12T08:48:34.591Z,5.51
2023-03-12T08:51:04.338Z,5.54
2023-03-12T08:53:33.274Z,5.61
2023-03-12T08:56:01.197Z,5.67
2023-03-12T08:58:31.364Z,5.71
2023-03-12T09:00:59.332Z,5.71
2023-03-12T09:03:27.304Z,5.68
2023-03-12T09:06:04.973Z,5.72
2023-03-12T09:08:34.042Z,5.75
2023-03-12T09:11:02.728Z,5.81
2023-03-12T09:13:50.753Z,5.83
2023-03-12T09:16:20.049Z,5.85
2023-03-12T09:18:47.785Z,5.87
2023-03-12T09:21:15.528Z,5.87
2023-03-12T09:23:43.429Z,5.93
2023-03-12T09:26:11.454Z,5.91
2023-03-12T09:28:40.751Z,5.94
2023-03-12T09:31:08.577Z,5.94
2023-03-12T09:33:36.381Z,5.94
2023-03-12T09:36:04.786Z,5.96
2023-03-12T09:38:35.336Z,5.90
2023-03-12T09:41:05.582Z,5.92
2023-03-12T09:43:38.809Z,5.95
2023-03-12T09:46:14.826Z,5.98
2023-03-12T09:48:44.721Z,6.01
2023-03-12T09:51:21.262Z,6.06
2023-03-12T09:53:52.704Z,6.09
2023-03-12T09:56:22.943Z,6.12
2023-03-12T09:58:54.613Z,6.16
2023-03-12T10:01:36.498Z,6.21
2023-03-12T10:04:25.763Z,6.19
2023-03-12T10:07:00.318Z,6.26
2023-03-12T10:09:41.633Z,6.28
2023-03-12T10:12:19.644Z,6.33
2023-03-12T10:15:03.730Z,6.39
2023-03-12T10:17:44.995Z,6.49
2023-03-12T10:20:41.676Z,6.58
2023-03-12T10:23:14.363Z,6.62
2023-03-12T10:25:48.294Z,6.63
2023-03-12T10:28:19.586Z,6.65
2023-03-12T10:30:51.531Z,6.71
2023-03-12T10:33:22.352Z,6.80
2023-03-12T10:35:52.208Z,6.82
2023-03-12T10:38:26.900Z,6.84
2023-03-12T10:40:54.651Z,6.89
2023-03-12T10:43:22.727Z,6.89
2023-03-12T10:46:03.151Z,6.88
2023-03-12T10:48:32.493Z,6.89
2023-03-12T10:51:05.780Z,6.93
2023-03-12T10:53:35.539Z,6.99
2023-03-12T10:56:06.956Z,7.04
2023-03-12T10:58:37.896Z,7.08
2023-03-12T11:01:21.840Z,7.15
2023-03-12T11:03:52.041Z,7.19
2023-03-12T11:06:27.466Z,7.23
2023-03-12T11:09:18.366Z,7.27
2023-03-12T11:11:48.405Z,7.33
2023-03-12T11:14:20.076Z,7.43
2023-03-12T11:16:48.079Z,7.51
2023-03-12T11:19:29.157Z,7.52
2023-03-12T11:21:58.974Z,7.58
2023-03-12T11:24:27.198Z,7.67
2023-03-12T11:27:03.167Z,7.74
2023-03-12T11:29:33.400Z,7.85
2023-03-12T11:32:07.227Z,7.99
2023-03-12T11:34:39.428Z,8.08
2023-03-12T11:37:16.177Z,8.22
2023-03-12T11:40:00.154Z,8.34
2023-03-12T11:42:41.320Z,8.43
2023-03-12T11:45:18.697Z,8.60
2023-03-12T11:47:58.352Z,8.73
2023-03-12T11:50:33.730Z,8.82
2023-03-12T11:53:18.441Z,8.91
2023-03-12T11:55:57.000Z,8.97
2023-03-12T11:58:40.795Z,9.01
2023-03-12T12:01:14.074Z,9.07
2023-03-12T12:04:21.426Z,9.13
2023-03-12T12:07:01.762Z,9.12
2023-03-12T12:09:38.202Z,9.16
2023-03-12T12:12:22.465Z,9.21
2023-03-12T12:15:04.810Z,9.30
2023-03-12T12:17:43.093Z,9.36
2023-03-12T12:20:21.592Z,9.47
2023-03-12T12:23:05.637Z,9.58
2023-03-12T12:25:47.423Z,9.58
2023-03-12T12:28:28.677Z,9.60
2023-03-12T12:31:09.239Z,9.65
2023-03-12T12:33:52.873Z,9.67
2023-03-12T12:36:20.789Z,9.72
2023-03-12T12:38:56.852Z,9.81
2023-03-12T12:41:26.417Z,9.82
2023-03-12T12:43:57.795Z,9.85
2023-03-12T12:46:29.201Z,9.97
2023-03-12T12:49:02.164Z,10.05
2023-03-12T12:51:33.970Z,10.10
2023-03-12T12:54:09.670Z,10.13
2023-03-12T12:56:44.870Z,10.15
2023-03-12T12:59:27.489Z,10.22
2023-03-12T13:01:58.566Z,10.22
2023-03-12T13:04:29.642Z,10.29
2023-03-12T13:07:01.406Z,10.47
2023-03-12T13:09:43.499Z,10.69
2023-03-12T13:12:19.232Z,10.78
2023-03-12T13:14:48.205Z,10.89
2023-03-12T13:17:31.209Z,10.97
2023-03-12T13:20:10.793Z,11.04
2023-03-12T13:23:10.303Z,11.13
2023-03-12T13:25:53.340Z,11.25
2023-03-12T13:28:35.840Z,11.36
2023-03-12T13:31:29.004Z,11.45
2023-03-12T13:33:59.405Z,11.53
2023-03-12T13:36:29.121Z,11.59
2023-03-12T13:39:01.774Z,11.60
2023-03-12T13:41:39.059Z,11.69
2023-03-12T13:44:30.249Z,11.75
2023-03-12T13:47:03.047Z,11.80
2023-03-12T13:49:38.449Z,11.77
2023-03-12T13:52:22.129Z,11.83
2023-03-12T13:54:59.558Z,11.82
2023-03-12T13:57:38.760Z,11.90
2023-03-12T14:00:16.440Z,11.90
2023-03-12T14:02:49.988Z,11.90
2023-03-12T14:05:19.671Z,11.89
2023-03-12T14:08:06.909Z,11.85
2023-03-12T14:10:46.756Z,11.82
2023-03-12T14:13:29.841Z,11.90
2023-03-12T14:16:06.841Z,12.01
2023-03-12T14:18:36.866Z,12.09
2023-03-12T14:21:11.565Z,12.07
2023-03-12T14:23:45.509Z,12.05
2023-03-12T14:26:24.523Z,12.04
2023-03-12T14:29:00.751Z,11.99
2023-03-12T14:31:33.684Z,12.01
2023-03-12T14:34:07.031Z,12.06
2023-03-12T14:36:40.790Z,12.16
2023-03-12T14:39:23.263Z,12.22
2023-03-12T14:41:56.840Z,12.29
2023-03-12T14:44:28.090Z,12.38
2023-03-12T14:47:01.271Z,12.45
2023-03-12T14:49:30.244Z,12.48
2023-03-12T14:51:59.870Z,12.50
2023-03-12T14:54:31.785Z,12.53
2023-03-12T14:56:59.534Z,12.53
2023-03-12T14:59:33.149Z,12.57
2023-03-12T15:02:05.239Z,12.62
2023-03-12T15:04:35.848Z,12.65
2023-03-12T15:07:07.830Z,12.67
2023-03-12T15:09:37.465Z,12.65
2023-03-12T15:12:07.849Z,12.62
2023-03-12T15:14:42.394Z,12.57
2023-03-12T15:17:16.589Z,12.45
2023-03-12T15:19:45.352Z,12.35
2023-03-12T15:22:16.943Z,12.28
2023-03-12T15:24:45.121Z,12.23
2023-03-12T15:27:21.926Z,12.23
2023-03-12T15:29:51.121Z,12.14
2023-03-12T15:32:21.554Z,12.16
2023-03-12T15:34:49.867Z,12.13
2023-03-12T15:37:24.850Z,12.12
2023-03-12T15:39:54.368Z,12.13
2023-03-12T15:42:25.354Z,12.14
2023-03-12T15:44:57.189Z,12.17
2023-03-12T15:47:27.781Z,12.15
2023-03-12T15:49:58.919Z,12.15
2023-03-12T15:52:32.504Z,12.11
2023-03-12T15:55:07.389Z,12.15
2023-03-12T15:57:41.752Z,12.15
2023-03-12T16:00:33.067Z,12.23
2023-03-12T16:03:04.008Z,12.23
2023-03-12T16:05:33.392Z,12.25
2023-03-12T16:08:03.641Z,12.28
2023-03-12T16:10:36.035Z,12.28
2023-03-12T16:13:04.869Z,12.26
2023-03-12T16:15:38.504Z,12.25
2023-03-12T16:18:06.401Z,12.20
2023-03-12T16:20:34.158Z,12.20
2023-03-12T16:23:02.186Z,12.23
2023-03-12T16:25:29.996Z,12.21
2023-03-12T16:28:02.727Z,12.22
2023-03-12T16:30:32.915Z,12.17
2023-03-12T16:33:06.080Z,12.15
2023-03-12T16:35:36.223Z,12.10
2023-03-12T16:38:04.131Z,12.14
2023-03-12T16:40:34.913Z,12.11
2023-03-12T16:43:04.684Z,12.13
2023-03-12T16:45:35.928Z,12.12
2023-03-12T16:48:07.396Z,12.08
2023-03-12T16:50:35.246Z,12.02
2023-03-12T16:53:03.978Z,12.01
2023-03-12T16:55:41.569Z,11.98
2023-03-12T16:58:14.173Z,11.93
2023-03-12T17:00:43.733Z,11.95
2023-03-12T17:03:20.585Z,11.96
2023-03-12T17:05:48.412Z,11.95
2023-03-12T17:08:16.919Z,11.93
2023-03-12T17:10:44.879Z,11.91
2023-03-12T17:13:20.600Z,11.90
2023-03-12T17:15:49.333Z,11.86
2023-03-12T17:18:19.204Z,11.84
2023-03-12T17:20:47.842Z,11.84
2023-03-12T17:23:15.932Z,11.86
2023-03-12T17:25:45.371Z,11.84
2023-03-12T17:28:15.368Z,11.81
2023-03-12T17:30:44.088Z,11.77
2023-03-12T17:33:14.003Z,11.73
2023-03-12T17:35:44.222Z,11.70
2023-03-12T17:38:12.953Z,11.70
2023-03-12T17:40:41.778Z,11.68
2023-03-12T17:43:09.857Z,11.64
2023-03-12T17:45:37.885Z,11.64
2023-03-12T17:48:05.822Z,11.63
2023-03-12T17:50:33.557Z,11.67
2023-03-12T17:53:02.949Z,11.64
2023-03-12T17:55:30.802Z,11.65
2023-03-12T17:57:58.585Z,11.60
2023-03-12T18:00:26.345Z,11.59
2023-03-12T18:02:54.163Z,11.58
2023-03-12T18:05:22.627Z,11.56
2023-03-12T18:07:52.272Z,11.58
2023-03-12T18:10:21.723Z,11.57
2023-03-12T18:12:49.643Z,11.48
2023-03-12T18:15:18.037Z,11.48
2023-03-12T18:17:46.061Z,11.46
2023-03-12T18:20:25.840Z,11.46
2023-03-12T18:23:00.091Z,11.45
2023-03-12T18:25:29.200Z,11.47
2023-03-12T18:27:56.936Z,11.45
2023-03-12T18:30:24.686Z,11.48
2023-03-12T18:32:52.464Z,11.44
2023-03-12T18:35:20.275Z,11.39
2023-03-12T18:37:48.015Z,11.40
2023-03-12T18:40:15.856Z,11.39
2023-03-12T18:42:44.950Z,11.39
2023-03-12T18:45:13.239Z,11.39
2023-03-12T18:47:41.987Z,11.39
2023-03-12T18:50:11.232Z,11.40
2023-03-12T18:52:39.304Z,11.40
2023-03-12T18:55:07.706Z,11.40
2023-03-12T18:57:35.521Z,11.44
2023-03-12T19:00:06.358Z,11.44
2023-03-12T19:02:34.124Z,11.41
2023-03-12T19:05:04.120Z,11.41
2023-03-12T19:07:32.191Z,11.40
2023-03-12T19:10:00.411Z,11.38
2023-03-12T19:12:30.402Z,11.37
2023-03-12T19:14:59.589Z,11.39
2023-03-12T19:17:29.364Z,11.38
2023-03-12T19:19:57.836Z,11.38
2023-03-12T19:22:25.564Z,11.40
2023-03-12T19:24:54.043Z,11.38
2023-03-12T19:27:21.877Z,11.40
2023-03-12T19:29:49.633Z,11.41
2023-03-12T19:32:17.455Z,11.43
2023-03-12T19:34:50.128Z,11.45
2023-03-12T19:37:19.708Z,11.47
2023-03-12T19:39:47.466Z,11.46
2023-03-12T19:42:15.280Z,11.46
2023-03-12T19:44:43.209Z,11.45
2023-03-12T19:47:11.123Z,11.47
2023-03-12T19:49:38.839Z,11.48
2023-03-12T19:52:07.989Z,11.47
2023-03-12T19:54:35.837Z,11.45
2023-03-12T19:57:03.720Z,11.47
2023-03-12T19:59:31.521Z,11.45
2023-03-12T20:02:01.607Z,11.48
2023-03-12T20:04:30.237Z,11.50
2023-03-12T20:06:57.970Z,11.50
2023-03-12T20:09:27.205Z,11.51
2023-03-12T20:11:55.014Z,11.47
2023-03-12T20:14:25.919Z,11.49
2023-03-12T20:16:54.034Z,11.53
2023-03-12T20:19:21.781Z,11.51
2023-03-12T20:21:50.402Z,11.55
2023-03-12T20:24:18.164Z,11.58
2023-03-12T20:26:47.542Z,11.57
2023-03-12T20:29:15.336Z,11.57
2023-03-12T20:31:44.340Z,11.57
2023-03-12T20:34:12.194Z,11.57
2023-03-12T20:36:39.908Z,11.57
2023-03-12T20:39:07.714Z,11.58
2023-03-12T20:41:35.575Z,11.61
2023-03-12T20:44:04.679Z,11.62
2023-03-12T20:46:32.368Z,11.60
2023-03-12T20:49:00.132Z,11.58
2023-03-12T20:51:27.878Z,11.57
2023-03-12T20:53:55.626Z,11.55
2023-03-12T20:56:23.684Z,11.58
2023-03-12T20:58:52.158Z,11.56
2023-03-12T21:01:24.373Z,11.56
2023-03-12T21:03:52.232Z,11.59
2023-03-12T21:06:20.021Z,11.62
2023-03-12T21:08:50.622Z,11.62
2023-03-12T21:11:18.562Z,11.66
2023-03-12T21:13:46.310Z,11.62
2023-03-12T21:16:14.016Z,11.59
2023-03-12T21:18:45.887Z,11.52
2023-03-12T21:21:13.755Z,11.49
2023-03-12T21:23:41.571Z,11.43
2023-03-12T21:26:10.116Z,11.39
2023-03-12T21:28:37.843Z,11.38
2023-03-12T21:31:07.367Z,11.37
2023-03-12T21:33:35.286Z,11.37
2023-03-12T21:36:13.890Z,11.40
2023-03-12T21:38:42.895Z,11.43
2023-03-12T21:41:12.543Z,11.47
2023-03-12T21:43:41.242Z,11.47
2023-03-12T21:46:11.138Z,11.46
2023-03-12T21:48:39.390Z,11.46
2023-03-12T21:51:10.766Z,11.48
2023-03-12T21:53:39.156Z,11.48
2023-03-12T21:56:08.691Z,11.48
2023-03-12T21:58:37.469Z,11.43
2023-03-12T22:01:08.240Z,11.46
2023-03-12T22:03:36.764Z,11.45
2023-03-12T22:06:04.899Z,11.41
2023-03-12T22:08:34.728Z,11.37
2023-03-12T22:11:02.762Z,11.41
2023-03-12T22:13:30.469Z,11.41
2023-03-12T22:15:59.742Z,11.44
2023-03-12T22:18:28.649Z,11.46
2023-03-12T22:20:59.702Z,11.45
2023-03-12T22:23:27.388Z,11.45
2023-03-12T22:25:56.802Z,11.45
2023-03-12T22:28:25.898Z,11.45
2023-03-12T22:30:58.489Z,11.40
2023-03-12T22:33:26.090Z,11.41
2023-03-12T22:35:53.857Z,11.43
2023-03-12T22:38:21.755Z,11.44
2023-03-12T22:40:49.798Z,11.46
2023-03-12T22:43:18.852Z,11.47
2023-03-12T22:45:46.561Z,11.50
2023-03-12T22:48:14.255Z,11.50
2023-03-12T22:50:41.944Z,11.45
2023-03-12T22:53:09.879Z,11.47
2023-03-12T22:55:37.515Z,11.50
2023-03-12T22:58:05.881Z,11.51
2023-03-12T23:00:34.947Z,11.52
2023-03-12T23:03:02.765Z,11.56
2023-03-12T23:05:30.415Z,11.56
2023-03-12T23:07:58.176Z,11.61
2023-03-12T23:10:25.847Z,11.66
2023-03-12T23:12:53.568Z,11.68
2023-03-12T23:15:24.510Z,11.66
2023-03-12T23:17:58.093Z,11.64
2023-03-12T23:20:25.824Z,11.64
2023-03-12T23:22:53.544Z,11.69
2023-03-12T23:25:21.218Z,11.70
2023-03-12T23:27:48.940Z,11.69
2023-03-12T23:30:16.747Z,11.67
2023-03-12T23:32:44.561Z,11.66
2023-03-12T23:35:13.672Z,11.67
2023-03-12T23:37:41.469Z,11.70
2023-03-12T23:40:11.158Z,11.72
2023-03-12T23:42:38.859Z,11.72
2023-03-12T23:45:07.974Z,11.71
2023-03-12T23:47:35.679Z,11.71
2023-03-12T23:50:03.652Z,11.68
2023-03-12T23:52:32.770Z,11.68
2023-03-12T23:55:00.431Z,11.76
2023-03-12T23:57:28.692Z,11.78
2023-03-12T23:59:56.386Z,11.74
